createdAt,value
2019-01-24T00:01:45.462Z,76.93
2019-01-24T00:04:16.885Z,77.10
2019-01-24T00:06:47.398Z,77.83
2019-01-24T00:09:17.854Z,77.54
2019-01-24T00:11:48.259Z,77.58
2019-01-24T00:14:18.751Z,77.33
2019-01-24T00:16:49.216Z,77.71
2019-01-24T00:19:19.635Z,77.56
2019-01-24T00:21:50.091Z,77.69
2019-01-24T00:24:20.499Z,77.29
2019-01-24T00:26:50.951Z,77.65
2019-01-24T00:29:21.403Z,77.05
2019-01-24T00:31:51.850Z,76.83
2019-01-24T00:34:23.384Z,76.71
2019-01-24T00:36:54.102Z,76.81
2019-01-24T00:39:24.598Z,77.74
2019-01-24T00:41:55.055Z,77.80
2019-01-24T00:44:25.471Z,77.22
2019-01-24T00:46:55.931Z,77.06
2019-01-24T00:49:26.346Z,76.82
2019-01-24T00:51:56.756Z,76.26
2019-01-24T00:54:27.210Z,77.07
2019-01-24T00:56:57.627Z,77.16
2019-01-24T00:59:28.176Z,76.82
2019-01-24T01:01:58.576Z,76.66
2019-01-24T01:04:29.844Z,76.33
2019-01-24T01:07:00.502Z,76.62
2019-01-24T01:09:30.910Z,75.98
2019-01-24T01:12:01.472Z,76.06
2019-01-24T01:14:31.883Z,76.05
2019-01-24T01:17:02.324Z,75.90
2019-01-24T01:19:32.933Z,75.93
2019-01-24T01:22:03.489Z,75.38
2019-01-24T01:24:34.000Z,76.11
2019-01-24T01:27:04.547Z,75.97
2019-01-24T01:29:34.971Z,76.26
2019-01-24T01:32:05.749Z,76.06
2019-01-24T01:34:36.427Z,77.00
2019-01-24T01:37:07.195Z,76.76
2019-01-24T01:39:37.682Z,75.97
2019-01-24T01:42:08.143Z,76.54
2019-01-24T01:44:38.548Z,76.20
2019-01-24T01:47:08.956Z,76.63
2019-01-24T01:49:39.510Z,76.10
2019-01-24T01:52:09.962Z,76.41
2019-01-24T01:54:40.407Z,76.40
2019-01-24T01:57:10.818Z,76.08
2019-01-24T01:59:41.263Z,76.05
2019-01-24T02:02:11.673Z,75.91
2019-01-24T02:04:43.024Z,75.85
2019-01-24T02:07:13.723Z,75.70
2019-01-24T02:09:44.177Z,75.93
2019-01-24T02:12:14.655Z,75.57
2019-01-24T02:14:45.078Z,75.52
2019-01-24T02:17:15.530Z,75.12
2019-01-24T02:19:45.991Z,75.35
2019-01-24T02:22:16.391Z,74.92
2019-01-24T02:24:46.810Z,75.42
2019-01-24T02:27:17.255Z,75.36
2019-01-24T02:29:47.679Z,75.35
2019-01-24T02:32:18.137Z,75.27
2019-01-24T02:34:49.722Z,75.06
2019-01-24T02:37:20.282Z,74.83
2019-01-24T02:39:50.691Z,75.14
2019-01-24T02:42:21.209Z,75.22
2019-01-24T02:44:51.746Z,75.16
2019-01-24T02:47:22.261Z,74.90
2019-01-24T02:49:52.702Z,74.81
2019-01-24T02:52:23.111Z,74.87
2019-01-24T02:54:53.560Z,74.31
2019-01-24T02:57:24.007Z,74.34
2019-01-24T02:59:54.551Z,74.70
2019-01-24T03:02:24.962Z,74.69
2019-01-24T03:04:57.065Z,74.66
2019-01-24T03:07:27.574Z,74.36
2019-01-24T03:09:58.022Z,74.65
2019-01-24T03:12:28.486Z,74.42
2019-01-24T03:14:58.907Z,74.26
2019-01-24T03:17:29.399Z,74.52
2019-01-24T03:19:59.853Z,74.25
2019-01-24T03:22:30.302Z,74.11
2019-01-24T03:25:00.759Z,73.85
2019-01-24T03:27:31.175Z,74.38
2019-01-24T03:30:01.732Z,74.91
2019-01-24T03:32:32.158Z,75.26
2019-01-24T03:35:04.327Z,75.55
2019-01-24T03:37:34.750Z,76.55
2019-01-24T03:40:06.152Z,77.02
2019-01-24T03:42:36.603Z,77.55
2019-01-24T03:45:09.902Z,77.66
2019-01-24T03:47:40.313Z,77.62
2019-01-24T03:50:13.377Z,77.65
2019-01-24T03:52:43.963Z,77.88
2019-01-24T03:55:15.470Z,77.73
2019-01-24T03:57:45.992Z,78.01
2019-01-24T04:00:18.556Z,77.76
2019-01-24T04:02:49.120Z,77.48
2019-01-24T04:05:19.948Z,77.36
2019-01-24T04:07:50.627Z,77.18
2019-01-24T04:10:22.077Z,77.08
2019-01-24T04:12:52.530Z,77.41
2019-01-24T04:15:24.902Z,77.63
2019-01-24T04:17:55.419Z,77.21
2019-01-24T04:20:25.967Z,77.64
2019-01-24T04:22:56.386Z,77.94
2019-01-24T04:25:26.896Z,77.98
2019-01-24T04:27:57.314Z,78.13
2019-01-24T04:30:27.829Z,78.57
2019-01-24T04:32:58.286Z,79.06
2019-01-24T04:35:28.698Z,78.91
2019-01-24T04:37:59.118Z,79.37
2019-01-24T04:40:29.585Z,79.01
2019-01-24T04:43:00.051Z,79.12
2019-01-24T04:45:30.505Z,79.32
2019-01-24T04:48:00.973Z,79.35
2019-01-24T04:50:31.401Z,79.23
2019-01-24T04:53:01.808Z,79.20
2019-01-24T04:55:32.305Z,79.46
2019-01-24T04:58:02.793Z,79.25
2019-01-24T05:00:33.359Z,78.95
2019-01-24T05:03:03.770Z,79.21
2019-01-24T05:05:34.175Z,79.34
2019-01-24T05:08:04.630Z,79.57
2019-01-24T05:10:35.065Z,79.84
2019-01-24T05:13:05.682Z,79.92
2019-01-24T05:15:36.145Z,79.87
2019-01-24T05:18:06.767Z,80.15
2019-01-24T05:20:37.214Z,80.17
2019-01-24T05:23:07.630Z,80.48
2019-01-24T05:25:38.174Z,80.45
2019-01-24T05:28:08.691Z,80.50
2019-01-24T05:30:39.144Z,80.22
2019-01-24T05:33:09.602Z,80.26
2019-01-24T05:35:40.017Z,80.25
2019-01-24T05:38:10.438Z,80.12
2019-01-24T05:40:40.892Z,79.97
2019-01-24T05:43:11.308Z,80.30
2019-01-24T05:45:41.771Z,79.83
2019-01-24T05:48:12.183Z,80.00
2019-01-24T05:50:42.647Z,79.87
2019-01-24T05:53:13.126Z,79.88
2019-01-24T05:55:43.589Z,79.50
2019-01-24T05:58:14.015Z,79.07
2019-01-24T06:00:46.241Z,78.87
2019-01-24T06:03:16.699Z,79.16
2019-01-24T06:05:47.328Z,79.49
2019-01-24T06:08:17.778Z,79.84
2019-01-24T06:10:48.308Z,80.04
2019-01-24T06:13:18.820Z,79.99
2019-01-24T06:15:49.270Z,79.94
2019-01-24T06:18:19.679Z,79.60
2019-01-24T06:20:50.138Z,79.14
2019-01-24T06:23:20.557Z,79.23
2019-01-24T06:25:51.057Z,79.20
2019-01-24T06:28:21.559Z,79.04
2019-01-24T06:30:51.988Z,78.79
2019-01-24T06:33:22.567Z,78.71
2019-01-24T06:35:52.989Z,78.44
2019-01-24T06:38:23.453Z,78.06
2019-01-24T06:40:53.987Z,77.48
2019-01-24T06:43:24.445Z,77.77
2019-01-24T06:45:54.934Z,77.50
2019-01-24T06:48:25.407Z,77.21
2019-01-24T06:50:55.847Z,77.01
2019-01-24T06:53:26.352Z,76.71
2019-01-24T06:55:56.823Z,76.77
2019-01-24T06:58:27.295Z,76.75
2019-01-24T07:00:57.762Z,76.08
2019-01-24T07:03:28.173Z,76.23
2019-01-24T07:05:58.626Z,76.42
2019-01-24T07:08:29.057Z,76.36
2019-01-24T07:10:59.547Z,76.07
2019-01-24T07:13:29.971Z,75.49
2019-01-24T07:16:00.437Z,75.96
2019-01-24T07:18:30.896Z,75.66
2019-01-24T07:21:01.311Z,75.43
2019-01-24T07:23:31.778Z,75.28
2019-01-24T07:26:02.211Z,74.94
2019-01-24T07:28:32.643Z,74.79
2019-01-24T07:31:03.214Z,74.56
2019-01-24T07:33:33.672Z,73.96
2019-01-24T07:36:04.259Z,73.81
2019-01-24T07:38:34.685Z,73.43
2019-01-24T07:41:05.316Z,73.21
2019-01-24T07:43:35.780Z,73.55
2019-01-24T07:46:06.635Z,73.39
2019-01-24T07:48:37.107Z,72.96
2019-01-24T07:51:07.659Z,73.40
2019-01-24T07:53:38.140Z,72.44
2019-01-24T07:56:08.856Z,72.76
2019-01-24T07:58:39.272Z,72.58
2019-01-24T08:01:09.802Z,72.04
2019-01-24T08:03:40.248Z,71.67
2019-01-24T08:06:10.716Z,71.66
2019-01-24T08:08:41.182Z,71.84
2019-01-24T08:11:11.605Z,71.66
2019-01-24T08:13:42.063Z,71.92
2019-01-24T08:16:12.660Z,71.77
2019-01-24T08:18:43.132Z,71.74
2019-01-24T08:21:13.674Z,71.51
2019-01-24T08:23:44.136Z,71.76
2019-01-24T08:26:14.726Z,72.01
2019-01-24T08:28:45.155Z,71.71
2019-01-24T08:31:15.723Z,71.93
2019-01-24T08:33:46.395Z,71.63
2019-01-24T08:36:16.944Z,71.77
2019-01-24T08:38:47.377Z,71.89
2019-01-24T08:41:17.882Z,72.15
2019-01-24T08:43:48.295Z,71.33
2019-01-24T08:46:18.711Z,69.83
2019-01-24T08:48:49.277Z,68.92
2019-01-24T08:51:19.831Z,68.21
2019-01-24T08:53:50.272Z,68.96
2019-01-24T08:56:20.705Z,68.67
2019-01-24T08:58:51.370Z,68.98
2019-01-24T09:01:21.843Z,69.58
2019-01-24T09:03:52.287Z,70.62
2019-01-24T09:06:22.900Z,70.54
2019-01-24T09:08:55.911Z,70.99
2019-01-24T09:11:26.420Z,70.87
2019-01-24T09:13:56.829Z,70.51
2019-01-24T09:16:27.287Z,72.08
2019-01-24T09:18:57.880Z,71.14
2019-01-24T09:21:28.351Z,71.38
2019-01-24T09:23:58.794Z,70.94
2019-01-24T09:26:29.270Z,71.42
2019-01-24T09:28:59.745Z,71.50
2019-01-24T09:31:30.174Z,71.58
2019-01-24T09:34:00.639Z,71.71
2019-01-24T09:36:31.351Z,71.48
2019-01-24T09:39:02.303Z,71.54
2019-01-24T09:41:32.714Z,72.23
2019-01-24T09:44:03.200Z,72.63
2019-01-24T09:46:33.617Z,72.49
2019-01-24T09:49:04.207Z,73.07
2019-01-24T09:51:34.679Z,73.05
2019-01-24T09:54:05.503Z,72.91
2019-01-24T09:56:36.003Z,73.20
2019-01-24T09:59:06.997Z,72.99
2019-01-24T10:01:37.422Z,72.40
2019-01-24T10:04:07.896Z,73.13
2019-01-24T10:06:38.327Z,73.10
2019-01-24T10:09:09.645Z,72.78
2019-01-24T10:11:40.091Z,73.24
2019-01-24T10:14:10.662Z,73.32
2019-01-24T10:16:41.088Z,73.07
2019-01-24T10:19:11.543Z,73.24
2019-01-24T10:21:42.100Z,72.21
2019-01-24T10:24:12.641Z,72.37
2019-01-24T10:26:43.065Z,71.86
2019-01-24T10:29:13.645Z,72.36
2019-01-24T10:31:44.192Z,71.41
2019-01-24T10:34:14.648Z,71.39
2019-01-24T10:36:45.148Z,71.38
2019-01-24T10:39:15.688Z,70.41
2019-01-24T10:41:46.218Z,69.92
2019-01-24T10:44:16.640Z,69.26
2019-01-24T10:46:47.069Z,68.94
2019-01-24T10:49:17.531Z,68.92
2019-01-24T10:51:47.951Z,68.39
2019-01-24T10:54:18.430Z,67.79
2019-01-24T10:56:48.864Z,68.16
2019-01-24T10:59:19.426Z,68.25
2019-01-24T11:01:49.970Z,67.79
2019-01-24T11:04:20.410Z,67.62
2019-01-24T11:06:50.920Z,67.90
2019-01-24T11:09:21.349Z,67.67
2019-01-24T11:11:51.768Z,67.84
2019-01-24T11:14:22.231Z,67.42
2019-01-24T11:16:52.673Z,67.49
2019-01-24T11:19:23.240Z,67.58
2019-01-24T11:21:53.662Z,67.36
2019-01-24T11:24:24.132Z,67.67
2019-01-24T11:26:54.590Z,67.76
2019-01-24T11:29:25.048Z,67.42
2019-01-24T11:31:55.599Z,67.84
2019-01-24T11:34:26.167Z,67.59
2019-01-24T11:36:57.200Z,67.15
2019-01-24T11:39:27.964Z,66.88
2019-01-24T11:41:58.534Z,67.11
2019-01-24T11:44:29.000Z,67.51
2019-01-24T11:46:59.501Z,67.37
2019-01-24T11:49:29.936Z,67.66
2019-01-24T11:52:00.402Z,67.09
2019-01-24T11:54:30.903Z,67.21
2019-01-24T11:57:01.368Z,66.93
2019-01-24T11:59:31.964Z,67.12
2019-01-24T12:02:02.407Z,66.85
2019-01-24T12:04:32.888Z,67.39
2019-01-24T12:07:04.255Z,67.28
2019-01-24T12:09:35.917Z,66.73
2019-01-24T12:12:06.598Z,66.66
2019-01-24T12:14:37.014Z,66.52
2019-01-24T12:17:07.492Z,66.13
2019-01-24T12:19:37.990Z,66.16
2019-01-24T12:22:08.461Z,67.18
2019-01-24T12:24:38.912Z,66.86
2019-01-24T12:27:09.331Z,66.74
2019-01-24T12:29:39.805Z,66.58
2019-01-24T12:32:10.326Z,66.33
2019-01-24T12:34:40.810Z,66.20
2019-01-24T12:37:11.603Z,65.96
2019-01-24T12:39:42.039Z,65.35
2019-01-24T12:42:12.474Z,65.47
2019-01-24T12:44:42.981Z,64.97
2019-01-24T12:47:13.426Z,65.57
2019-01-24T12:49:43.858Z,64.74
2019-01-24T12:52:14.366Z,65.25
2019-01-24T12:54:44.862Z,64.89
2019-01-24T12:57:15.279Z,64.14
2019-01-24T12:59:45.782Z,63.86
2019-01-24T13:02:16.248Z,64.20
2019-01-24T13:04:46.778Z,64.48
2019-01-24T13:07:18.444Z,64.65
2019-01-24T13:09:49.021Z,64.49
2019-01-24T13:12:19.485Z,64.32
2019-01-24T13:14:49.912Z,64.26
2019-01-24T13:17:20.375Z,64.30
2019-01-24T13:19:50.790Z,64.10
2019-01-24T13:22:21.353Z,64.15
2019-01-24T13:24:51.802Z,64.91
2019-01-24T13:27:22.254Z,64.77
2019-01-24T13:29:52.674Z,64.82
2019-01-24T13:32:23.153Z,64.67
2019-01-24T13:34:53.713Z,64.40
2019-01-24T13:37:25.860Z,64.55
2019-01-24T13:39:56.395Z,65.09
2019-01-24T13:42:26.996Z,64.65
2019-01-24T13:44:57.538Z,64.58
2019-01-24T13:47:28.145Z,65.13
2019-01-24T13:49:58.622Z,65.12
2019-01-24T13:52:29.048Z,65.16
2019-01-24T13:54:59.528Z,65.36
2019-01-24T13:57:29.952Z,65.71
2019-01-24T14:00:00.469Z,65.96
2019-01-24T14:02:30.933Z,65.92
2019-01-24T14:05:01.409Z,67.05
2019-01-24T14:07:33.044Z,66.60
2019-01-24T14:10:03.880Z,66.69
2019-01-24T14:12:34.358Z,67.05
2019-01-24T14:15:06.266Z,66.80
2019-01-24T14:17:36.817Z,66.81
2019-01-24T14:20:10.656Z,66.63
2019-01-24T14:22:41.320Z,66.64
2019-01-24T14:25:14.435Z,65.97
2019-01-24T14:27:44.901Z,66.49
2019-01-24T14:30:21.293Z,66.48
2019-01-24T14:32:52.191Z,66.79
2019-01-24T14:35:23.032Z,66.84
2019-01-24T14:37:53.598Z,66.02
2019-01-24T14:40:24.114Z,66.31
2019-01-24T14:42:54.572Z,66.35
2019-01-24T14:45:27.186Z,66.21
2019-01-24T14:47:57.859Z,66.23
2019-01-24T14:50:28.711Z,66.02
2019-01-24T14:52:59.329Z,66.11
2019-01-24T14:55:29.910Z,67.00
2019-01-24T14:58:00.419Z,67.18
2019-01-24T15:00:39.363Z,67.23
2019-01-24T15:03:09.957Z,67.47
2019-01-24T15:05:40.546Z,67.10
2019-01-24T15:11:17.845Z,67.12
2019-01-24T15:13:48.660Z,67.16
2019-01-24T15:16:19.382Z,67.01
2019-01-24T15:18:50.046Z,67.57
2019-01-24T15:21:20.818Z,67.68
2019-01-24T15:23:51.355Z,68.03
2019-01-24T15:26:22.143Z,67.84
2019-01-24T15:28:52.625Z,67.75
2019-01-24T15:31:23.189Z,68.26
2019-01-24T15:33:53.653Z,68.19
2019-01-24T15:36:24.159Z,68.10
2019-01-24T15:38:54.685Z,68.74
2019-01-24T15:41:25.149Z,69.26
2019-01-24T15:43:55.620Z,68.77
2019-01-24T15:46:26.096Z,68.58
2019-01-24T15:48:56.610Z,68.54
2019-01-24T15:51:27.114Z,68.83
2019-01-24T15:53:57.579Z,69.72
2019-01-24T15:56:28.061Z,70.46
2019-01-24T15:58:58.528Z,70.28
2019-01-24T16:01:29.087Z,69.57
2019-01-24T16:03:59.604Z,69.35
2019-01-24T16:06:30.172Z,69.26
2019-01-24T16:09:00.654Z,69.02
2019-01-24T16:11:31.132Z,68.84
2019-01-24T16:14:01.603Z,69.39
2019-01-24T16:16:32.174Z,69.40
2019-01-24T16:19:02.672Z,69.15
2019-01-24T16:21:33.343Z,69.13
2019-01-24T16:24:03.938Z,68.70
2019-01-24T16:26:34.442Z,68.68
2019-01-24T16:29:05.160Z,68.93
2019-01-24T16:31:35.674Z,68.32
2019-01-24T16:34:06.485Z,68.26
2019-01-24T16:36:36.992Z,68.07
2019-01-24T16:39:09.984Z,68.12
2019-01-24T16:41:40.443Z,67.71
2019-01-24T16:44:10.941Z,68.06
2019-01-24T16:46:41.436Z,67.90
2019-01-24T16:49:11.901Z,67.96
2019-01-24T16:51:42.403Z,68.46
2019-01-24T16:54:12.870Z,68.27
2019-01-24T16:56:43.376Z,68.52
2019-01-24T16:59:13.882Z,68.35
2019-01-24T17:01:44.433Z,68.46
2019-01-24T17:04:14.948Z,68.35
2019-01-24T17:06:45.414Z,68.31
2019-01-24T17:09:15.990Z,67.92
2019-01-24T17:11:46.514Z,68.34
2019-01-24T17:14:22.300Z,68.09
2019-01-24T17:16:49.132Z,68.02
2019-01-24T17:19:19.609Z,68.15
2019-01-24T17:21:50.108Z,68.19
2019-01-24T17:24:20.570Z,68.01
2019-01-24T17:26:51.080Z,68.34
2019-01-24T17:29:21.553Z,68.15
2019-01-24T17:31:52.015Z,68.02
2019-01-24T17:34:22.526Z,67.93
2019-01-24T17:36:53.021Z,67.90
2019-01-24T17:39:23.490Z,67.86
2019-01-24T17:41:53.994Z,67.94
2019-01-24T17:44:24.490Z,67.93
2019-01-24T17:46:54.974Z,67.91
2019-01-24T17:49:25.488Z,68.02
2019-01-24T17:51:55.928Z,67.92
2019-01-24T17:54:26.437Z,67.96
2019-01-24T17:56:56.905Z,67.93
2019-01-24T17:59:27.434Z,67.75
2019-01-24T18:01:58.154Z,67.66
2019-01-24T18:04:28.629Z,67.75
2019-01-24T18:06:59.136Z,67.99
2019-01-24T18:09:29.604Z,67.98
2019-01-24T18:12:00.070Z,68.04
2019-01-24T18:14:30.674Z,68.00
2019-01-24T18:17:01.133Z,68.21
2019-01-24T18:19:31.641Z,68.19
2019-01-24T18:22:02.160Z,68.78
2019-01-24T18:24:32.626Z,68.48
2019-01-24T18:27:03.137Z,69.04
2019-01-24T18:29:33.638Z,69.20
2019-01-24T18:32:04.354Z,69.98
2019-01-24T18:34:34.814Z,70.34
2019-01-24T18:37:05.345Z,71.03
2019-01-24T18:39:35.789Z,71.01
2019-01-24T18:42:06.494Z,70.87
2019-01-24T18:44:36.953Z,71.15
2019-01-24T18:47:07.457Z,71.54
2019-01-24T18:49:37.925Z,71.28
2019-01-24T18:52:08.524Z,71.38
2019-01-24T18:54:39.002Z,71.72
2019-01-24T18:57:09.606Z,71.29
2019-01-24T18:59:40.210Z,71.21
2019-01-24T19:02:10.722Z,71.55
2019-01-24T19:04:41.198Z,71.64
2019-01-24T19:07:13.165Z,71.55
2019-01-24T19:09:44.168Z,71.89
2019-01-24T19:12:14.742Z,72.18
2019-01-24T19:14:45.210Z,72.36
2019-01-24T19:17:15.734Z,72.18
2019-01-24T19:19:46.187Z,72.25
2019-01-24T19:22:16.643Z,72.08
2019-01-24T19:24:47.158Z,72.02
2019-01-24T19:27:17.657Z,72.03
2019-01-24T19:29:48.126Z,72.03
2019-01-24T19:32:18.654Z,71.72
2019-01-24T19:34:49.114Z,71.61
2019-01-24T19:37:19.588Z,71.69
2019-01-24T19:39:50.086Z,71.77
2019-01-24T19:42:20.595Z,71.94
2019-01-24T19:44:51.111Z,72.08
2019-01-24T19:47:21.565Z,72.38
2019-01-24T19:49:52.032Z,72.56
2019-01-24T19:52:22.546Z,73.08
2019-01-24T19:54:53.013Z,72.95
2019-01-24T19:57:23.530Z,72.97
2019-01-24T19:59:54.042Z,72.87
2019-01-24T20:02:24.519Z,72.91
2019-01-24T20:04:54.985Z,72.78
2019-01-24T20:07:25.495Z,73.07
2019-01-24T20:09:55.969Z,73.27
2019-01-24T20:12:26.482Z,73.58
2019-01-24T20:14:56.932Z,73.26
2019-01-24T20:17:27.468Z,73.21
2019-01-24T20:19:57.940Z,73.19
2019-01-24T20:22:28.457Z,72.88
2019-01-24T20:24:58.955Z,73.28
2019-01-24T20:27:29.427Z,73.05
2019-01-24T20:29:59.942Z,72.95
2019-01-24T20:32:30.983Z,73.08
2019-01-24T20:35:01.538Z,73.11
2019-01-24T20:37:32.034Z,73.68
2019-01-24T20:40:02.540Z,73.56
2019-01-24T20:42:33.005Z,73.38
2019-01-24T20:45:03.646Z,73.39
2019-01-24T20:47:34.108Z,73.25
2019-01-24T20:50:04.802Z,73.42
2019-01-24T20:52:35.261Z,73.40
2019-01-24T20:55:06.681Z,73.07
2019-01-24T20:57:37.318Z,73.26
2019-01-24T21:00:13.030Z,73.11
2019-01-24T21:02:43.693Z,73.15
2019-01-24T21:05:15.713Z,73.07
2019-01-24T21:07:46.668Z,73.16
2019-01-24T21:10:19.426Z,73.11
2019-01-24T21:12:49.924Z,73.29
2019-01-24T21:15:21.214Z,73.03
2019-01-24T21:17:51.723Z,73.33
2019-01-24T21:20:26.756Z,73.40
2019-01-24T21:22:57.369Z,73.21
2019-01-24T21:25:28.425Z,73.58
2019-01-24T21:27:58.887Z,73.54
2019-01-24T21:30:34.324Z,73.47
2019-01-24T21:33:05.049Z,73.54
2019-01-24T21:35:35.667Z,73.76
2019-01-24T21:38:07.613Z,73.65
2019-01-24T21:40:38.109Z,73.44
2019-01-24T21:43:08.706Z,73.52
2019-01-24T21:45:39.525Z,73.40
2019-01-24T21:48:10.274Z,73.57
2019-01-24T21:50:40.935Z,73.49
2019-01-24T21:53:11.552Z,73.30
2019-01-24T21:55:42.061Z,73.55
2019-01-24T21:58:12.674Z,73.26
2019-01-24T22:00:43.186Z,73.45
2019-01-24T22:03:13.693Z,73.49
2019-01-24T22:05:44.260Z,73.69
2019-01-24T22:08:14.738Z,73.56
2019-01-24T22:10:45.414Z,73.96
2019-01-24T22:13:15.931Z,74.16
2019-01-24T22:15:46.397Z,74.16
2019-01-24T22:18:17.002Z,73.84
2019-01-24T22:20:47.461Z,73.67
2019-01-24T22:23:17.964Z,73.74
2019-01-24T22:25:48.425Z,73.61
2019-01-24T22:28:18.882Z,73.73
2019-01-24T22:30:54.958Z,73.87
2019-01-24T22:33:25.459Z,74.05
2019-01-24T22:35:55.922Z,73.77
2019-01-24T22:38:26.432Z,73.71
2019-01-24T22:40:57.010Z,73.77
2019-01-24T22:43:27.481Z,73.89
2019-01-24T22:45:58.084Z,73.59
2019-01-24T22:48:28.590Z,73.25
2019-01-24T22:50:59.058Z,72.23
2019-01-24T22:53:29.562Z,72.61
2019-01-24T22:56:00.053Z,71.99
2019-01-24T22:58:30.554Z,71.49
2019-01-24T23:01:30.859Z,71.21
2019-01-24T23:04:11.325Z,70.91
2019-01-24T23:06:41.916Z,70.74
2019-01-24T23:09:13.024Z,70.62
2019-01-24T23:11:43.487Z,70.58
2019-01-24T23:14:13.981Z,70.50
2019-01-24T23:16:44.546Z,70.12
2019-01-24T23:19:15.015Z,69.80
2019-01-24T23:21:45.530Z,69.57
2019-01-24T23:24:15.999Z,69.26
2019-01-24T23:26:46.509Z,69.72
2019-01-24T23:29:16.981Z,69.56
2019-01-24T23:31:47.488Z,69.74
2019-01-24T23:34:17.953Z,69.41
2019-01-24T23:36:48.447Z,69.36
2019-01-24T23:39:18.902Z,69.50
2019-01-24T23:41:49.401Z,69.42
2019-01-24T23:44:19.998Z,70.09
2019-01-24T23:46:50.459Z,69.67
2019-01-24T23:49:20.973Z,69.89
2019-01-24T23:51:51.479Z,69.95
2019-01-24T23:54:21.945Z,69.94
2019-01-24T23:56:52.448Z,70.15
2019-01-24T23:59:22.910Z,70.67
